sensor_id;sensor_type;location;lat;lon;timestamp;P1;durP1;ratioP1;P2;durP2;ratioP2
19036;SDS011;9651;49.138;8.900;2023-02-14T00:02:32;30.50;;;15.40;;
19036;SDS011;9651;49.138;8.900;2023-02-14T00:06:34;25.27;;;12.73;;
19036;SDS011;9651;49.138;8.900;2023-02-14T00:10:39;27.67;;;13.17;;
19036;SDS011;9651;49.138;8.900;2023-02-14T00:14:41;25.73;;;13.17;;
19036;SDS011;9651;49.138;8.900;2023-02-14T00:19:00;24.73;;;13.00;;
19036;SDS011;9651;49.138;8.900;2023-02-14T00:23:05;30.13;;;14.67;;
19036;SDS011;9651;49.138;8.900;2023-02-14T00:27:08;28.07;;;13.53;;
19036;SDS011;9651;49.138;8.900;2023-02-14T00:31:10;31.73;;;13.77;;
19036;SDS011;9651;49.138;8.900;2023-02-14T00:35:12;28.57;;;13.77;;
19036;SDS011;9651;49.138;8.900;2023-02-14T00:39:15;28.30;;;13.43;;
19036;SDS011;9651;49.138;8.900;2023-02-14T00:43:19;29.80;;;14.27;;
19036;SDS011;9651;49.138;8.900;2023-02-14T00:47:21;31.03;;;14.53;;
19036;SDS011;9651;49.138;8.900;2023-02-14T00:51:25;29.47;;;13.77;;
19036;SDS011;9651;49.138;8.900;2023-02-14T00:55:27;31.80;;;14.57;;
19036;SDS011;9651;49.138;8.900;2023-02-14T00:59:30;26.87;;;13.80;;
19036;SDS011;9651;49.138;8.900;2023-02-14T01:03:32;30.73;;;14.83;;
19036;SDS011;9651;49.138;8.900;2023-02-14T01:07:34;28.43;;;14.30;;
19036;SDS011;9651;49.138;8.900;2023-02-14T01:11:36;28.97;;;14.47;;
19036;SDS011;9651;49.138;8.900;2023-02-14T01:15:41;31.50;;;13.13;;
19036;SDS011;9651;49.138;8.900;2023-02-14T01:19:44;32.30;;;15.37;;
19036;SDS011;9651;49.138;8.900;2023-02-14T01:23:47;33.43;;;15.30;;
19036;SDS011;9651;49.138;8.900;2023-02-14T01:27:51;34.80;;;15.57;;
19036;SDS011;9651;49.138;8.900;2023-02-14T01:31:55;31.80;;;14.50;;
19036;SDS011;9651;49.138;8.900;2023-02-14T01:35:58;35.27;;;15.80;;
19036;SDS011;9651;49.138;8.900;2023-02-14T01:40:00;34.37;;;15.43;;
19036;SDS011;9651;49.138;8.900;2023-02-14T01:44:04;33.77;;;15.73;;
19036;SDS011;9651;49.138;8.900;2023-02-14T01:48:08;29.63;;;15.70;;
19036;SDS011;9651;49.138;8.900;2023-02-14T01:52:13;31.37;;;14.77;;
19036;SDS011;9651;49.138;8.900;2023-02-14T01:56:19;30.60;;;15.77;;
19036;SDS011;9651;49.138;8.900;2023-02-14T02:00:25;32.97;;;15.00;;
19036;SDS011;9651;49.138;8.900;2023-02-14T02:04:46;34.83;;;16.00;;
19036;SDS011;9651;49.138;8.900;2023-02-14T02:08:49;32.53;;;15.80;;
19036;SDS011;9651;49.138;8.900;2023-02-14T02:12:56;36.17;;;15.77;;
19036;SDS011;9651;49.138;8.900;2023-02-14T02:17:12;35.20;;;16.27;;
19036;SDS011;9651;49.138;8.900;2023-02-14T02:26:13;37.13;;;17.63;;
19036;SDS011;9651;49.138;8.900;2023-02-14T02:31:02;39.37;;;18.13;;
19036;SDS011;9651;49.138;8.900;2023-02-14T02:35:28;35.33;;;16.83;;
19036;SDS011;9651;49.138;8.900;2023-02-14T02:39:44;38.47;;;18.20;;
19036;SDS011;9651;49.138;8.900;2023-02-14T02:44:00;35.63;;;16.63;;
19036;SDS011;9651;49.138;8.900;2023-02-14T02:48:13;39.33;;;17.33;;
19036;SDS011;9651;49.138;8.900;2023-02-14T02:52:24;36.20;;;16.07;;
19036;SDS011;9651;49.138;8.900;2023-02-14T02:56:49;35.00;;;16.67;;
19036;SDS011;9651;49.138;8.900;2023-02-14T03:00:56;42.80;;;18.90;;
19036;SDS011;9651;49.138;8.900;2023-02-14T03:05:01;45.20;;;18.93;;
19036;SDS011;9651;49.138;8.900;2023-02-14T03:09:11;42.07;;;17.67;;
19036;SDS011;9651;49.138;8.900;2023-02-14T03:13:32;40.87;;;18.00;;
19036;SDS011;9651;49.138;8.900;2023-02-14T03:17:55;37.57;;;17.30;;
19036;SDS011;9651;49.138;8.900;2023-02-14T03:22:07;44.27;;;19.47;;
19036;SDS011;9651;49.138;8.900;2023-02-14T03:26:17;40.77;;;17.70;;
19036;SDS011;9651;49.138;8.900;2023-02-14T03:30:24;41.43;;;17.87;;
19036;SDS011;9651;49.138;8.900;2023-02-14T03:34:37;45.27;;;18.10;;
19036;SDS011;9651;49.138;8.900;2023-02-14T03:38:48;41.90;;;19.20;;
19036;SDS011;9651;49.138;8.900;2023-02-14T03:42:58;44.87;;;19.10;;
19036;SDS011;9651;49.138;8.900;2023-02-14T03:47:03;43.23;;;18.30;;
19036;SDS011;9651;49.138;8.900;2023-02-14T03:51:09;44.77;;;19.23;;
19036;SDS011;9651;49.138;8.900;2023-02-14T03:55:14;44.30;;;19.07;;
19036;SDS011;9651;49.138;8.900;2023-02-14T03:59:21;45.90;;;19.90;;
19036;SDS011;9651;49.138;8.900;2023-02-14T04:03:25;45.97;;;18.90;;
19036;SDS011;9651;49.138;8.900;2023-02-14T04:07:30;47.23;;;19.43;;
19036;SDS011;9651;49.138;8.900;2023-02-14T04:11:32;46.50;;;19.90;;
19036;SDS011;9651;49.138;8.900;2023-02-14T04:15:36;47.17;;;18.97;;
19036;SDS011;9651;49.138;8.900;2023-02-14T04:19:37;51.83;;;20.43;;
19036;SDS011;9651;49.138;8.900;2023-02-14T04:23:38;51.77;;;20.57;;
19036;SDS011;9651;49.138;8.900;2023-02-14T04:27:40;50.33;;;20.07;;
19036;SDS011;9651;49.138;8.900;2023-02-14T04:31:43;48.57;;;19.60;;
19036;SDS011;9651;49.138;8.900;2023-02-14T04:35:46;47.37;;;19.23;;
19036;SDS011;9651;49.138;8.900;2023-02-14T04:39:48;52.20;;;19.83;;
19036;SDS011;9651;49.138;8.900;2023-02-14T04:43:50;44.10;;;18.20;;
19036;SDS011;9651;49.138;8.900;2023-02-14T04:47:53;46.33;;;19.13;;
19036;SDS011;9651;49.138;8.900;2023-02-14T04:51:55;47.77;;;19.40;;
19036;SDS011;9651;49.138;8.900;2023-02-14T04:55:57;44.03;;;19.80;;
19036;SDS011;9651;49.138;8.900;2023-02-14T04:59:59;44.47;;;19.03;;
19036;SDS011;9651;49.138;8.900;2023-02-14T05:04:03;47.03;;;19.10;;
19036;SDS011;9651;49.138;8.900;2023-02-14T05:08:05;46.97;;;20.10;;
19036;SDS011;9651;49.138;8.900;2023-02-14T05:12:07;46.57;;;19.10;;
19036;SDS011;9651;49.138;8.900;2023-02-14T05:16:09;45.70;;;18.97;;
19036;SDS011;9651;49.138;8.900;2023-02-14T05:20:12;39.47;;;19.13;;
19036;SDS011;9651;49.138;8.900;2023-02-14T05:24:14;43.63;;;18.37;;
19036;SDS011;9651;49.138;8.900;2023-02-14T05:28:16;40.70;;;18.10;;
19036;SDS011;9651;49.138;8.900;2023-02-14T05:32:18;41.70;;;17.50;;
19036;SDS011;9651;49.138;8.900;2023-02-14T05:36:21;42.67;;;18.70;;
19036;SDS011;9651;49.138;8.900;2023-02-14T05:40:24;45.93;;;19.60;;
19036;SDS011;9651;49.138;8.900;2023-02-14T05:44:26;44.33;;;18.90;;
19036;SDS011;9651;49.138;8.900;2023-02-14T05:48:28;44.13;;;19.67;;
19036;SDS011;9651;49.138;8.900;2023-02-14T05:52:31;41.03;;;18.40;;
19036;SDS011;9651;49.138;8.900;2023-02-14T05:56:33;49.27;;;19.07;;
19036;SDS011;9651;49.138;8.900;2023-02-14T06:00:35;50.13;;;19.57;;
19036;SDS011;9651;49.138;8.900;2023-02-14T06:04:37;48.80;;;18.70;;
19036;SDS011;9651;49.138;8.900;2023-02-14T06:08:40;50.40;;;19.57;;
19036;SDS011;9651;49.138;8.900;2023-02-14T06:12:42;54.20;;;18.80;;
19036;SDS011;9651;49.138;8.900;2023-02-14T06:16:44;50.43;;;20.73;;
19036;SDS011;9651;49.138;8.900;2023-02-14T06:20:46;47.53;;;20.90;;
19036;SDS011;9651;49.138;8.900;2023-02-14T06:24:49;50.27;;;21.17;;
19036;SDS011;9651;49.138;8.900;2023-02-14T06:28:51;46.50;;;18.83;;
19036;SDS011;9651;49.138;8.900;2023-02-14T06:32:54;53.30;;;20.70;;
19036;SDS011;9651;49.138;8.900;2023-02-14T06:36:56;51.30;;;21.27;;
19036;SDS011;9651;49.138;8.900;2023-02-14T06:41:02;47.13;;;19.87;;
19036;SDS011;9651;49.138;8.900;2023-02-14T06:45:05;53.43;;;19.43;;
19036;SDS011;9651;49.138;8.900;2023-02-14T06:49:08;49.60;;;21.17;;
19036;SDS011;9651;49.138;8.900;2023-02-14T06:53:10;48.47;;;19.33;;
19036;SDS011;9651;49.138;8.900;2023-02-14T06:57:13;44.83;;;19.23;;
19036;SDS011;9651;49.138;8.900;2023-02-14T07:01:15;51.03;;;20.63;;
19036;SDS011;9651;49.138;8.900;2023-02-14T07:05:16;44.87;;;18.20;;
19036;SDS011;9651;49.138;8.900;2023-02-14T07:09:19;50.03;;;20.50;;
19036;SDS011;9651;49.138;8.900;2023-02-14T07:13:22;47.23;;;19.93;;
19036;SDS011;9651;49.138;8.900;2023-02-14T07:17:24;46.10;;;18.60;;
19036;SDS011;9651;49.138;8.900;2023-02-14T07:21:26;45.50;;;18.60;;
19036;SDS011;9651;49.138;8.900;2023-02-14T07:25:28;42.23;;;18.50;;
19036;SDS011;9651;49.138;8.900;2023-02-14T07:29:31;44.87;;;17.90;;
19036;SDS011;9651;49.138;8.900;2023-02-14T07:33:33;44.27;;;17.93;;
19036;SDS011;9651;49.138;8.900;2023-02-14T07:37:35;43.47;;;17.60;;
19036;SDS011;9651;49.138;8.900;2023-02-14T07:41:37;37.67;;;17.40;;
19036;SDS011;9651;49.138;8.900;2023-02-14T07:45:44;45.47;;;18.83;;
19036;SDS011;9651;49.138;8.900;2023-02-14T07:49:46;46.87;;;19.60;;
19036;SDS011;9651;49.138;8.900;2023-02-14T07:53:48;43.87;;;18.63;;
19036;SDS011;9651;49.138;8.900;2023-02-14T07:57:51;44.10;;;18.27;;
19036;SDS011;9651;49.138;8.900;2023-02-14T08:01:54;38.67;;;16.60;;
19036;SDS011;9651;49.138;8.900;2023-02-14T08:05:56;43.67;;;17.73;;
19036;SDS011;9651;49.138;8.900;2023-02-14T08:09:58;41.97;;;18.80;;
19036;SDS011;9651;49.138;8.900;2023-02-14T08:14:00;49.40;;;19.40;;
19036;SDS011;9651;49.138;8.900;2023-02-14T08:18:04;46.63;;;20.10;;
19036;SDS011;9651;49.138;8.900;2023-02-14T08:22:06;40.10;;;17.67;;
19036;SDS011;9651;49.138;8.900;2023-02-14T08:26:08;41.57;;;17.13;;
19036;SDS011;9651;49.138;8.900;2023-02-14T08:30:10;36.77;;;17.60;;
19036;SDS011;9651;49.138;8.900;2023-02-14T08:34:14;42.00;;;18.70;;
19036;SDS011;9651;49.138;8.900;2023-02-14T08:38:16;47.70;;;20.07;;
19036;SDS011;9651;49.138;8.900;2023-02-14T08:42:18;39.77;;;18.43;;
19036;SDS011;9651;49.138;8.900;2023-02-14T08:46:20;40.63;;;16.13;;
19036;SDS011;9651;49.138;8.900;2023-02-14T08:50:23;39.07;;;17.03;;
19036;SDS011;9651;49.138;8.900;2023-02-14T08:54:25;42.00;;;17.83;;
19036;SDS011;9651;49.138;8.900;2023-02-14T08:58:26;37.83;;;18.17;;
19036;SDS011;9651;49.138;8.900;2023-02-14T09:02:28;44.43;;;18.77;;
19036;SDS011;9651;49.138;8.900;2023-02-14T09:06:32;45.97;;;19.43;;
19036;SDS011;9651;49.138;8.900;2023-02-14T09:10:37;40.10;;;18.33;;
19036;SDS011;9651;49.138;8.900;2023-02-14T09:14:39;37.17;;;17.63;;
19036;SDS011;9651;49.138;8.900;2023-02-14T09:18:43;39.70;;;16.13;;
19036;SDS011;9651;49.138;8.900;2023-02-14T09:22:47;44.00;;;17.80;;
19036;SDS011;9651;49.138;8.900;2023-02-14T09:26:49;36.97;;;17.73;;
19036;SDS011;9651;49.138;8.900;2023-02-14T09:30:50;35.17;;;15.63;;
19036;SDS011;9651;49.138;8.900;2023-02-14T09:34:52;35.60;;;16.30;;
19036;SDS011;9651;49.138;8.900;2023-02-14T09:39:13;34.63;;;15.90;;
19036;SDS011;9651;49.138;8.900;2023-02-14T09:43:16;38.13;;;17.73;;
19036;SDS011;9651;49.138;8.900;2023-02-14T09:47:24;38.40;;;16.80;;
19036;SDS011;9651;49.138;8.900;2023-02-14T09:51:41;36.40;;;14.90;;
19036;SDS011;9651;49.138;8.900;2023-02-14T09:55:50;31.83;;;15.67;;
19036;SDS011;9651;49.138;8.900;2023-02-14T09:59:56;30.87;;;16.97;;
19036;SDS011;9651;49.138;8.900;2023-02-14T10:04:19;38.30;;;16.00;;
19036;SDS011;9651;49.138;8.900;2023-02-14T10:08:31;35.00;;;15.33;;
19036;SDS011;9651;49.138;8.900;2023-02-14T10:12:50;33.57;;;16.17;;
19036;SDS011;9651;49.138;8.900;2023-02-14T10:16:57;39.23;;;17.97;;
19036;SDS011;9651;49.138;8.900;2023-02-14T10:21:04;36.00;;;16.43;;
19036;SDS011;9651;49.138;8.900;2023-02-14T10:25:12;31.20;;;16.03;;
19036;SDS011;9651;49.138;8.900;2023-02-14T10:29:18;30.77;;;16.27;;
19036;SDS011;9651;49.138;8.900;2023-02-14T10:33:21;36.03;;;16.27;;
19036;SDS011;9651;49.138;8.900;2023-02-14T10:37:43;29.47;;;14.90;;
19036;SDS011;9651;49.138;8.900;2023-02-14T10:41:53;32.30;;;16.07;;
19036;SDS011;9651;49.138;8.900;2023-02-14T10:46:02;31.87;;;15.13;;
19036;SDS011;9651;49.138;8.900;2023-02-14T10:50:14;32.47;;;15.47;;
19036;SDS011;9651;49.138;8.900;2023-02-14T10:54:20;33.13;;;16.30;;
19036;SDS011;9651;49.138;8.900;2023-02-14T10:58:25;30.90;;;15.90;;
19036;SDS011;9651;49.138;8.900;2023-02-14T11:02:33;30.67;;;15.37;;
19036;SDS011;9651;49.138;8.900;2023-02-14T11:06:39;32.37;;;16.90;;
19036;SDS011;9651;49.138;8.900;2023-02-14T11:10:40;32.57;;;16.63;;
19036;SDS011;9651;49.138;8.900;2023-02-14T11:14:42;28.40;;;14.57;;
19036;SDS011;9651;49.138;8.900;2023-02-14T11:18:46;29.77;;;15.20;;
19036;SDS011;9651;49.138;8.900;2023-02-14T11:23:16;29.37;;;15.47;;
19036;SDS011;9651;49.138;8.900;2023-02-14T11:27:20;28.70;;;15.70;;
19036;SDS011;9651;49.138;8.900;2023-02-14T11:31:25;24.80;;;14.30;;
19036;SDS011;9651;49.138;8.900;2023-02-14T11:35:31;27.50;;;14.57;;
19036;SDS011;9651;49.138;8.900;2023-02-14T11:39:34;31.20;;;15.73;;
19036;SDS011;9651;49.138;8.900;2023-02-14T11:43:36;22.47;;;14.17;;
19036;SDS011;9651;49.138;8.900;2023-02-14T11:47:39;24.77;;;15.50;;
19036;SDS011;9651;49.138;8.900;2023-02-14T11:51:43;24.60;;;16.00;;
19036;SDS011;9651;49.138;8.900;2023-02-14T11:55:49;25.67;;;15.03;;
19036;SDS011;9651;49.138;8.900;2023-02-14T11:59:53;25.37;;;15.40;;
19036;SDS011;9651;49.138;8.900;2023-02-14T12:03:57;21.73;;;14.27;;
19036;SDS011;9651;49.138;8.900;2023-02-14T12:08:03;24.83;;;15.90;;
19036;SDS011;9651;49.138;8.900;2023-02-14T12:12:14;26.93;;;16.13;;
19036;SDS011;9651;49.138;8.900;2023-02-14T12:16:18;23.90;;;14.43;;
19036;SDS011;9651;49.138;8.900;2023-02-14T12:20:25;22.27;;;15.17;;
19036;SDS011;9651;49.138;8.900;2023-02-14T12:24:40;24.33;;;15.40;;
19036;SDS011;9651;49.138;8.900;2023-02-14T12:28:52;23.10;;;15.87;;
19036;SDS011;9651;49.138;8.900;2023-02-14T12:32:58;23.10;;;16.27;;
19036;SDS011;9651;49.138;8.900;2023-02-14T12:37:07;29.77;;;17.43;;
19036;SDS011;9651;49.138;8.900;2023-02-14T12:41:22;29.27;;;16.50;;
19036;SDS011;9651;49.138;8.900;2023-02-14T12:45:40;29.97;;;17.23;;
19036;SDS011;9651;49.138;8.900;2023-02-14T12:50:00;29.30;;;17.77;;
19036;SDS011;9651;49.138;8.900;2023-02-14T12:54:24;24.20;;;14.60;;
19036;SDS011;9651;49.138;8.900;2023-02-14T12:58:52;26.20;;;15.87;;
19036;SDS011;9651;49.138;8.900;2023-02-14T13:03:10;22.37;;;14.27;;
19036;SDS011;9651;49.138;8.900;2023-02-14T13:07:45;22.77;;;14.43;;
19036;SDS011;9651;49.138;8.900;2023-02-14T13:11:58;24.03;;;15.20;;
19036;SDS011;9651;49.138;8.900;2023-02-14T13:16:11;24.37;;;14.13;;
19036;SDS011;9651;49.138;8.900;2023-02-14T13:20:26;26.00;;;14.97;;
19036;SDS011;9651;49.138;8.900;2023-02-14T13:24:49;26.87;;;14.13;;
19036;SDS011;9651;49.138;8.900;2023-02-14T13:28:54;26.33;;;14.10;;
19036;SDS011;9651;49.138;8.900;2023-02-14T13:33:01;24.40;;;13.63;;
19036;SDS011;9651;49.138;8.900;2023-02-14T13:37:06;25.07;;;15.27;;
19036;SDS011;9651;49.138;8.900;2023-02-14T13:41:13;27.77;;;15.07;;
19036;SDS011;9651;49.138;8.900;2023-02-14T13:49:55;27.27;;;14.60;;
19036;SDS011;9651;49.138;8.900;2023-02-14T13:53:59;32.93;;;16.63;;
19036;SDS011;9651;49.138;8.900;2023-02-14T13:58:02;25.77;;;14.97;;
19036;SDS011;9651;49.138;8.900;2023-02-14T14:16:23;31.57;;;14.13;;
19036;SDS011;9651;49.138;8.900;2023-02-14T14:20:41;24.57;;;14.80;;
19036;SDS011;9651;49.138;8.900;2023-02-14T14:24:57;30.23;;;14.23;;
19036;SDS011;9651;49.138;8.900;2023-02-14T14:29:01;24.13;;;14.40;;
19036;SDS011;9651;49.138;8.900;2023-02-14T14:33:14;32.17;;;16.43;;
19036;SDS011;9651;49.138;8.900;2023-02-14T14:37:24;28.90;;;15.70;;
19036;SDS011;9651;49.138;8.900;2023-02-14T14:41:28;28.67;;;13.87;;
19036;SDS011;9651;49.138;8.900;2023-02-14T14:45:31;29.03;;;15.07;;
19036;SDS011;9651;49.138;8.900;2023-02-14T14:49:34;31.90;;;15.47;;
19036;SDS011;9651;49.138;8.900;2023-02-14T14:53:40;27.27;;;14.67;;
19036;SDS011;9651;49.138;8.900;2023-02-14T14:57:47;31.50;;;15.73;;
19036;SDS011;9651;49.138;8.900;2023-02-14T15:01:50;27.40;;;15.27;;
19036;SDS011;9651;49.138;8.900;2023-02-14T15:06:03;30.70;;;15.87;;
19036;SDS011;9651;49.138;8.900;2023-02-14T15:10:19;26.07;;;14.43;;
19036;SDS011;9651;49.138;8.900;2023-02-14T15:14:23;32.67;;;16.87;;
19036;SDS011;9651;49.138;8.900;2023-02-14T15:18:27;29.03;;;16.10;;
19036;SDS011;9651;49.138;8.900;2023-02-14T15:22:32;29.53;;;14.70;;
19036;SDS011;9651;49.138;8.900;2023-02-14T15:26:41;31.20;;;16.57;;
19036;SDS011;9651;49.138;8.900;2023-02-14T15:30:44;28.07;;;15.43;;
19036;SDS011;9651;49.138;8.900;2023-02-14T15:34:56;30.97;;;18.13;;
19036;SDS011;9651;49.138;8.900;2023-02-14T15:39:01;26.87;;;14.93;;
19036;SDS011;9651;49.138;8.900;2023-02-14T15:43:12;27.97;;;15.57;;
19036;SDS011;9651;49.138;8.900;2023-02-14T15:47:15;29.87;;;15.67;;
19036;SDS011;9651;49.138;8.900;2023-02-14T15:51:18;27.93;;;15.33;;
19036;SDS011;9651;49.138;8.900;2023-02-14T15:55:23;29.20;;;15.50;;
19036;SDS011;9651;49.138;8.900;2023-02-14T15:59:27;26.50;;;14.07;;
19036;SDS011;9651;49.138;8.900;2023-02-14T16:03:33;28.73;;;14.87;;
19036;SDS011;9651;49.138;8.900;2023-02-14T16:07:36;26.90;;;15.13;;
19036;SDS011;9651;49.138;8.900;2023-02-14T16:11:39;25.57;;;15.07;;
19036;SDS011;9651;49.138;8.900;2023-02-14T16:15:54;30.67;;;14.77;;
19036;SDS011;9651;49.138;8.900;2023-02-14T16:19:58;26.90;;;14.53;;
19036;SDS011;9651;49.138;8.900;2023-02-14T16:24:19;29.90;;;15.60;;
19036;SDS011;9651;49.138;8.900;2023-02-14T16:28:22;29.73;;;16.07;;
19036;SDS011;9651;49.138;8.900;2023-02-14T16:32:28;36.83;;;17.23;;
19036;SDS011;9651;49.138;8.900;2023-02-14T16:36:31;32.93;;;16.37;;
19036;SDS011;9651;49.138;8.900;2023-02-14T16:40:34;26.73;;;15.80;;
19036;SDS011;9651;49.138;8.900;2023-02-14T16:44:37;31.00;;;17.33;;
19036;SDS011;9651;49.138;8.900;2023-02-14T16:48:39;29.43;;;16.33;;
19036;SDS011;9651;49.138;8.900;2023-02-14T16:52:41;38.43;;;19.63;;
19036;SDS011;9651;49.138;8.900;2023-02-14T16:56:45;41.57;;;22.33;;
19036;SDS011;9651;49.138;8.900;2023-02-14T17:00:52;38.57;;;20.87;;
19036;SDS011;9651;49.138;8.900;2023-02-14T17:04:55;32.37;;;19.13;;
19036;SDS011;9651;49.138;8.900;2023-02-14T17:08:57;41.17;;;20.33;;
19036;SDS011;9651;49.138;8.900;2023-02-14T17:13:02;34.63;;;19.40;;
19036;SDS011;9651;49.138;8.900;2023-02-14T17:17:06;33.27;;;17.10;;
19036;SDS011;9651;49.138;8.900;2023-02-14T17:21:09;35.37;;;19.40;;
19036;SDS011;9651;49.138;8.900;2023-02-14T17:25:11;39.13;;;18.00;;
19036;SDS011;9651;49.138;8.900;2023-02-14T17:29:14;32.97;;;18.50;;
19036;SDS011;9651;49.138;8.900;2023-02-14T17:33:17;35.83;;;19.70;;
19036;SDS011;9651;49.138;8.900;2023-02-14T17:37:19;37.07;;;19.73;;
19036;SDS011;9651;49.138;8.900;2023-02-14T17:41:22;37.37;;;20.50;;
19036;SDS011;9651;49.138;8.900;2023-02-14T17:45:25;37.57;;;21.07;;
19036;SDS011;9651;49.138;8.900;2023-02-14T17:49:28;39.83;;;20.87;;
19036;SDS011;9651;49.138;8.900;2023-02-14T17:53:30;36.43;;;20.47;;
19036;SDS011;9651;49.138;8.900;2023-02-14T17:57:33;34.33;;;18.87;;
19036;SDS011;9651;49.138;8.900;2023-02-14T18:01:35;30.93;;;16.90;;
19036;SDS011;9651;49.138;8.900;2023-02-14T18:05:38;35.70;;;17.20;;
19036;SDS011;9651;49.138;8.900;2023-02-14T18:09:40;30.53;;;16.30;;
19036;SDS011;9651;49.138;8.900;2023-02-14T18:13:42;31.97;;;17.77;;
19036;SDS011;9651;49.138;8.900;2023-02-14T18:17:47;32.47;;;17.03;;
19036;SDS011;9651;49.138;8.900;2023-02-14T18:21:51;29.37;;;16.47;;
19036;SDS011;9651;49.138;8.900;2023-02-14T18:25:53;34.23;;;17.80;;
19036;SDS011;9651;49.138;8.900;2023-02-14T18:29:56;36.17;;;18.20;;
19036;SDS011;9651;49.138;8.900;2023-02-14T18:33:58;33.17;;;17.53;;
19036;SDS011;9651;49.138;8.900;2023-02-14T18:38:04;30.70;;;16.80;;
19036;SDS011;9651;49.138;8.900;2023-02-14T18:42:06;31.80;;;16.07;;
19036;SDS011;9651;49.138;8.900;2023-02-14T18:46:09;37.43;;;18.27;;
19036;SDS011;9651;49.138;8.900;2023-02-14T18:50:12;33.67;;;17.00;;
19036;SDS011;9651;49.138;8.900;2023-02-14T18:54:16;32.20;;;16.50;;
19036;SDS011;9651;49.138;8.900;2023-02-14T18:58:17;30.43;;;16.10;;
19036;SDS011;9651;49.138;8.900;2023-02-14T19:02:19;33.47;;;18.17;;
19036;SDS011;9651;49.138;8.900;2023-02-14T19:06:21;34.40;;;17.90;;
19036;SDS011;9651;49.138;8.900;2023-02-14T19:10:25;37.63;;;18.83;;
19036;SDS011;9651;49.138;8.900;2023-02-14T19:14:26;33.70;;;18.27;;
19036;SDS011;9651;49.138;8.900;2023-02-14T19:18:28;33.17;;;15.73;;
19036;SDS011;9651;49.138;8.900;2023-02-14T19:22:30;32.20;;;15.90;;
19036;SDS011;9651;49.138;8.900;2023-02-14T19:26:38;32.87;;;16.20;;
19036;SDS011;9651;49.138;8.900;2023-02-14T19:30:40;31.90;;;16.10;;
19036;SDS011;9651;49.138;8.900;2023-02-14T19:34:42;28.07;;;14.70;;
19036;SDS011;9651;49.138;8.900;2023-02-14T19:38:44;26.90;;;13.57;;
19036;SDS011;9651;49.138;8.900;2023-02-14T19:42:48;28.43;;;14.00;;
19036;SDS011;9651;49.138;8.900;2023-02-14T19:46:50;30.00;;;14.63;;
19036;SDS011;9651;49.138;8.900;2023-02-14T19:50:53;29.50;;;15.93;;
19036;SDS011;9651;49.138;8.900;2023-02-14T19:54:55;29.03;;;15.07;;
19036;SDS011;9651;49.138;8.900;2023-02-14T19:58:58;35.70;;;17.47;;
19036;SDS011;9651;49.138;8.900;2023-02-14T20:03:06;36.70;;;16.20;;
19036;SDS011;9651;49.138;8.900;2023-02-14T20:07:08;32.73;;;16.90;;
19036;SDS011;9651;49.138;8.900;2023-02-14T20:11:12;29.03;;;14.20;;
19036;SDS011;9651;49.138;8.900;2023-02-14T20:15:26;32.77;;;15.10;;
19036;SDS011;9651;49.138;8.900;2023-02-14T20:19:30;34.47;;;16.63;;
19036;SDS011;9651;49.138;8.900;2023-02-14T20:23:33;32.80;;;15.47;;
19036;SDS011;9651;49.138;8.900;2023-02-14T20:27:37;34.27;;;17.80;;
19036;SDS011;9651;49.138;8.900;2023-02-14T20:31:44;38.90;;;19.20;;
19036;SDS011;9651;49.138;8.900;2023-02-14T20:35:47;32.47;;;16.97;;
19036;SDS011;9651;49.138;8.900;2023-02-14T20:39:49;32.60;;;16.23;;
19036;SDS011;9651;49.138;8.900;2023-02-14T20:43:51;32.23;;;16.63;;
19036;SDS011;9651;49.138;8.900;2023-02-14T20:47:55;32.23;;;16.23;;
19036;SDS011;9651;49.138;8.900;2023-02-14T20:51:57;30.07;;;15.33;;
19036;SDS011;9651;49.138;8.900;2023-02-14T20:55:59;32.10;;;14.57;;
19036;SDS011;9651;49.138;8.900;2023-02-14T21:00:02;34.20;;;16.50;;
19036;SDS011;9651;49.138;8.900;2023-02-14T21:04:06;43.30;;;19.03;;
19036;SDS011;9651;49.138;8.900;2023-02-14T21:08:08;38.57;;;18.83;;
19036;SDS011;9651;49.138;8.900;2023-02-14T21:12:10;35.10;;;17.60;;
19036;SDS011;9651;49.138;8.900;2023-02-14T21:16:13;35.97;;;18.20;;
19036;SDS011;9651;49.138;8.900;2023-02-14T21:20:17;32.03;;;17.67;;
19036;SDS011;9651;49.138;8.900;2023-02-14T21:24:19;29.30;;;15.47;;
19036;SDS011;9651;49.138;8.900;2023-02-14T21:28:21;31.87;;;16.57;;
19036;SDS011;9651;49.138;8.900;2023-02-14T21:32:23;32.87;;;15.43;;
19036;SDS011;9651;49.138;8.900;2023-02-14T21:36:29;38.53;;;17.53;;
19036;SDS011;9651;49.138;8.900;2023-02-14T21:40:34;38.57;;;17.53;;
19036;SDS011;9651;49.138;8.900;2023-02-14T21:44:36;32.83;;;16.87;;
19036;SDS011;9651;49.138;8.900;2023-02-14T21:48:56;41.07;;;18.60;;
19036;SDS011;9651;49.138;8.900;2023-02-14T21:53:17;40.73;;;18.50;;
19036;SDS011;9651;49.138;8.900;2023-02-14T21:57:19;38.30;;;16.17;;
19036;SDS011;9651;49.138;8.900;2023-02-14T22:01:22;40.27;;;17.93;;
19036;SDS011;9651;49.138;8.900;2023-02-14T22:05:25;37.10;;;16.93;;
19036;SDS011;9651;49.138;8.900;2023-02-14T22:09:28;37.30;;;18.03;;
19036;SDS011;9651;49.138;8.900;2023-02-14T22:13:31;40.93;;;19.13;;
19036;SDS011;9651;49.138;8.900;2023-02-14T22:17:33;40.97;;;18.83;;
19036;SDS011;9651;49.138;8.900;2023-02-14T22:21:36;40.50;;;17.37;;
19036;SDS011;9651;49.138;8.900;2023-02-14T22:25:40;35.50;;;17.23;;
19036;SDS011;9651;49.138;8.900;2023-02-14T22:29:42;35.87;;;15.83;;
19036;SDS011;9651;49.138;8.900;2023-02-14T22:33:44;40.27;;;17.77;;
19036;SDS011;9651;49.138;8.900;2023-02-14T22:37:47;44.33;;;17.70;;
19036;SDS011;9651;49.138;8.900;2023-02-14T22:41:50;40.67;;;16.47;;
19036;SDS011;9651;49.138;8.900;2023-02-14T22:45:52;36.40;;;16.50;;
19036;SDS011;9651;49.138;8.900;2023-02-14T22:49:53;36.03;;;16.67;;
19036;SDS011;9651;49.138;8.900;2023-02-14T22:53:56;40.90;;;17.30;;
19036;SDS011;9651;49.138;8.900;2023-02-14T22:58:00;38.13;;;17.50;;
19036;SDS011;9651;49.138;8.900;2023-02-14T23:02:02;35.17;;;16.17;;
19036;SDS011;9651;49.138;8.900;2023-02-14T23:06:04;54.13;;;17.07;;
19036;SDS011;9651;49.138;8.900;2023-02-14T23:10:06;40.40;;;16.47;;
19036;SDS011;9651;49.138;8.900;2023-02-14T23:14:10;41.60;;;15.23;;
19036;SDS011;9651;49.138;8.900;2023-02-14T23:18:31;66.87;;;17.23;;
19036;SDS011;9651;49.138;8.900;2023-02-14T23:22:51;33.67;;;15.87;;
19036;SDS011;9651;49.138;8.900;2023-02-14T23:26:53;41.37;;;17.33;;
19036;SDS011;9651;49.138;8.900;2023-02-14T23:30:59;38.13;;;15.10;;
19036;SDS011;9651;49.138;8.900;2023-02-14T23:35:02;35.20;;;14.47;;
19036;SDS011;9651;49.138;8.900;2023-02-14T23:39:04;33.50;;;14.27;;
19036;SDS011;9651;49.138;8.900;2023-02-14T23:43:06;37.33;;;16.83;;
19036;SDS011;9651;49.138;8.900;2023-02-14T23:47:10;29.47;;;14.73;;
19036;SDS011;9651;49.138;8.900;2023-02-14T23:51:14;30.67;;;14.43;;
19036;SDS011;9651;49.138;8.900;2023-02-14T23:55:15;32.97;;;14.97;;
19036;SDS011;9651;49.138;8.900;2023-02-14T23:59:18;87.70;;;17.97;;
